PWSweather.com
Personal Weather Stations
Station Observations
PWSLORIS
The Farm At Fox Bay, Loris, SC 29569

The Farm At Fox BayLoris, SC 29569

Lat: 34.067097, Lon: -78.86907

Elevation: 108

Station Type: Davis Vantage Pro2 with 24 hr. FARS and solar

http://www.lorisweather.com

Latest ConditionsUpdated 7:15:01 AM EDT Monday, Apr 24, 2017
Currently Today's Max Today's Min Today's Average
Temperature 62.0°F16.7°C 62.0°F16.7°C 61.2°F16.2°C 61.5°F16.4°C
Dew Point 61.4°F16.3°C 61.4°F16.3°C 60.3°F15.7°C 60.7°F15.9°C
Winds Calm Calm 5.8 mph NE9.3 kmh NE - 2.8 mph 4.5 kmh
Wind Gusts -- 10.4 mph16.7 kmh - -
Humidity 98% 98% 96% 97%
Pressure 29.76 in1007.8 mb 29.86 in1011.2 mb 29.75 in1007.5 mb -
Precipitation - 0.36 in9.1 mm - -
Hour Temp Dew Point Humidity Winds Wind Gusts Pressure Precip Precip Rate Daily Precip Total
07:15 AM 62.0°F16.7°C 61.4°F16.3°C 98% Calm Calm -- 29.76 in1007.8 mb - 0.00 in0.0 mm 0.36 in9.1 mm
07:00 AM 62.0°F16.7°C 61.4°F16.3°C 98% Calm Calm -- 29.76 in1007.8 mb - 0.04 in1.0 mm 0.36 in9.1 mm
06:45 AM 61.9°F16.6°C 61.3°F16.3°C 98% Calm Calm -- 29.76 in1007.8 mb - 0.05 in1.3 mm 0.33 in8.4 mm
06:30 AM 61.8°F16.6°C 61.2°F16.2°C 98% 4.6 mph NE7.4 kmh NE 4.6 mph7.4 kmh 29.75 in1007.5 mb - 0.13 in3.3 mm 0.28 in7.1 mm
06:15 AM 61.7°F16.5°C 61.1°F16.2°C 98% 1.2 mph ESE1.9 kmh ESE 1.2 mph1.9 kmh 29.76 in1007.8 mb - 0.08 in2.0 mm 0.18 in4.6 mm
06:00 AM 61.6°F16.4°C 61.0°F16.1°C 98% 2.3 mph NE3.7 kmh NE 3.5 mph5.6 kmh 29.75 in1007.5 mb - 0.00 in0.0 mm 0.10 in2.5 mm
05:45 AM 61.6°F16.4°C 61.0°F16.1°C 98% 1.2 mph NE1.9 kmh NE 3.5 mph5.6 kmh 29.75 in1007.5 mb - 0.00 in0.0 mm 0.10 in2.5 mm
05:30 AM 61.6°F16.4°C 61.0°F16.1°C 98% 2.3 mph NE3.7 kmh NE 2.3 mph3.7 kmh 29.75 in1007.5 mb - 0.00 in0.0 mm 0.10 in2.5 mm
05:15 AM 61.5°F16.4°C 60.9°F16.1°C 98% 2.3 mph NE3.7 kmh NE 4.6 mph7.4 kmh 29.75 in1007.5 mb - 0.00 in0.0 mm 0.10 in2.5 mm
05:00 AM 61.5°F16.4°C 60.9°F16.1°C 98% 1.2 mph NE1.9 kmh NE 5.8 mph9.3 kmh 29.75 in1007.5 mb - 0.00 in0.0 mm 0.10 in2.5 mm
04:45 AM 61.4°F16.3°C 60.8°F16.0°C 98% Calm Calm 1.2 mph1.9 kmh 29.77 in1008.1 mb - 0.00 in0.0 mm 0.10 in2.5 mm
04:30 AM 61.4°F16.3°C 60.8°F16.0°C 98% 4.6 mph E7.4 kmh E 6.9 mph11.1 kmh 29.76 in1007.8 mb - 0.01 in0.3 mm 0.10 in2.5 mm
04:15 AM 61.4°F16.3°C 60.5°F15.8°C 97% 3.5 mph ENE5.6 kmh ENE 6.9 mph11.1 kmh 29.77 in1008.1 mb - 0.00 in0.0 mm 0.09 in2.3 mm
04:00 AM 61.3°F16.3°C 60.4°F15.8°C 97% 1.2 mph NE1.9 kmh NE 4.6 mph7.4 kmh 29.78 in1008.5 mb - 0.00 in0.0 mm 0.09 in2.3 mm
03:45 AM 61.2°F16.2°C 60.3°F15.7°C 97% 3.5 mph NE5.6 kmh NE 3.5 mph5.6 kmh 29.77 in1008.1 mb - 0.01 in0.3 mm 0.09 in2.3 mm
03:30 AM 61.2°F16.2°C 60.3°F15.7°C 97% 4.6 mph E7.4 kmh E 8.1 mph13.0 kmh 29.77 in1008.1 mb - 0.03 in0.8 mm 0.08 in2.0 mm
03:15 AM 61.3°F16.3°C 60.4°F15.8°C 97% 1.2 mph ENE1.9 kmh ENE 3.5 mph5.6 kmh 29.77 in1008.1 mb - 0.01 in0.3 mm 0.05 in1.3 mm
03:00 AM 61.2°F16.2°C 60.4°F15.8°C 97% Calm Calm 9.2 mph14.8 kmh 29.79 in1008.8 mb - 0.01 in0.3 mm 0.04 in1.0 mm
02:45 AM 61.2°F16.2°C 60.3°F15.7°C 97% 5.8 mph ENE9.3 kmh ENE 10.4 mph16.7 kmh 29.79 in1008.8 mb - 0.00 in0.0 mm 0.03 in0.8 mm
02:30 AM 61.2°F16.2°C 60.3°F15.7°C 97% 5.8 mph ENE9.3 kmh ENE 8.1 mph13.0 kmh 29.80 in1009.1 mb - 0.00 in0.0 mm 0.03 in0.8 mm
02:15 AM 61.3°F16.3°C 60.4°F15.8°C 97% 3.5 mph NE5.6 kmh NE 5.8 mph9.3 kmh 29.80 in1009.1 mb - 0.00 in0.0 mm 0.03 in0.8 mm
02:00 AM 61.4°F16.3°C 60.5°F15.8°C 97% 5.8 mph NE9.3 kmh NE 10.4 mph16.7 kmh 29.81 in1009.5 mb - 0.00 in0.0 mm 0.03 in0.8 mm
01:45 AM 61.4°F16.3°C 60.5°F15.8°C 97% 4.6 mph E7.4 kmh E 6.9 mph11.1 kmh 29.81 in1009.5 mb - 0.00 in0.0 mm 0.03 in0.8 mm
01:30 AM 61.5°F16.4°C 60.6°F15.9°C 97% 4.6 mph E7.4 kmh E 9.2 mph14.8 kmh 29.82 in1009.8 mb - 0.00 in0.0 mm 0.03 in0.8 mm
01:15 AM 61.6°F16.4°C 60.4°F15.8°C 96% 3.5 mph E5.6 kmh E 8.1 mph13.0 kmh 29.83 in1010.2 mb - 0.01 in0.3 mm 0.03 in0.8 mm
01:00 AM 61.7°F16.5°C 60.5°F15.8°C 96% 3.5 mph E5.6 kmh E 8.1 mph13.0 kmh 29.84 in1010.5 mb - 0.02 in0.5 mm 0.02 in0.5 mm
12:45 AM 61.7°F16.5°C 60.5°F15.8°C 96% 4.6 mph ENE7.4 kmh ENE 4.6 mph7.4 kmh 29.85 in1010.8 mb - 0.01 in0.3 mm 0.01 in0.3 mm
12:30 AM 61.8°F16.6°C 60.6°F15.9°C 96% 4.6 mph NE7.4 kmh NE 6.9 mph11.1 kmh 29.86 in1011.2 mb - 0.00 in0.0 mm 0.00 in0.0 mm
12:15 AM 61.9°F16.6°C 60.7°F15.9°C 96% 1.2 mph NE1.9 kmh NE 3.5 mph5.6 kmh 29.86 in1011.2 mb - 0.00 in0.0 mm 0.00 in0.0 mm
12:00 AM 62.0°F16.7°C 60.8°F16.0°C 96% 3.5 mph E5.6 kmh E 5.8 mph9.3 kmh 29.86 in1011.2 mb - 0.00 in0.0 mm 0.00 in0.0 mm